sensor_id;sensor_type;location;lat;lon;timestamp;P1;durP1;ratioP1;P2;durP2;ratioP2
1346;SDS011;667;48.796;9.480;2024-03-23T00:53:00;5.82;;;5.25;;
1346;SDS011;667;48.796;9.480;2024-03-23T00:55:26;5.95;;;5.05;;
1346;SDS011;667;48.796;9.480;2024-03-23T00:57:52;7.57;;;5.97;;
1346;SDS011;667;48.796;9.480;2024-03-23T01:00:18;5.60;;;4.83;;
1346;SDS011;667;48.796;9.480;2024-03-23T01:02:44;5.18;;;4.68;;
1346;SDS011;667;48.796;9.480;2024-03-23T01:05:10;8.13;;;5.70;;
1346;SDS011;667;48.796;9.480;2024-03-23T01:07:36;5.45;;;4.93;;
1346;SDS011;667;48.796;9.480;2024-03-23T01:10:02;7.90;;;5.50;;
1346;SDS011;667;48.796;9.480;2024-03-23T01:12:29;6.00;;;5.00;;
1346;SDS011;667;48.796;9.480;2024-03-23T01:14:55;6.30;;;5.70;;
1346;SDS011;667;48.796;9.480;2024-03-23T01:17:21;7.90;;;5.53;;
1346;SDS011;667;48.796;9.480;2024-03-23T01:19:46;6.30;;;5.30;;
1346;SDS011;667;48.796;9.480;2024-03-23T01:22:12;6.57;;;5.80;;
1346;SDS011;667;48.796;9.480;2024-03-23T01:24:38;5.43;;;4.93;;
1346;SDS011;667;48.796;9.480;2024-03-23T01:27:04;6.10;;;5.50;;
1346;SDS011;667;48.796;9.480;2024-03-23T01:29:30;6.82;;;4.72;;
1346;SDS011;667;48.796;9.480;2024-03-23T01:31:56;5.63;;;5.13;;
1346;SDS011;667;48.796;9.480;2024-03-23T01:34:22;6.25;;;5.65;;
1346;SDS011;667;48.796;9.480;2024-03-23T01:36:50;6.03;;;5.47;;
1346;SDS011;667;48.796;9.480;2024-03-23T01:39:15;5.78;;;5.18;;
1346;SDS011;667;48.796;9.480;2024-03-23T01:41:41;6.73;;;5.57;;
1346;SDS011;667;48.796;9.480;2024-03-23T01:44:08;7.28;;;5.82;;
1346;SDS011;667;48.796;9.480;2024-03-23T01:46:37;7.40;;;6.47;;
1346;SDS011;667;48.796;9.480;2024-03-23T01:49:06;6.20;;;5.70;;
1346;SDS011;667;48.796;9.480;2024-03-23T01:51:33;6.93;;;6.32;;
1346;SDS011;667;48.796;9.480;2024-03-23T01:53:59;6.43;;;5.85;;
1346;SDS011;667;48.796;9.480;2024-03-23T01:56:27;6.15;;;5.43;;
1346;SDS011;667;48.796;9.480;2024-03-23T01:58:55;7.13;;;6.43;;
1346;SDS011;667;48.796;9.480;2024-03-23T02:01:21;6.20;;;5.40;;
1346;SDS011;667;48.796;9.480;2024-03-23T02:03:46;6.30;;;5.67;;
1346;SDS011;667;48.796;9.480;2024-03-23T02:06:13;5.70;;;5.20;;
1346;SDS011;667;48.796;9.480;2024-03-23T02:08:39;6.07;;;5.50;;
1346;SDS011;667;48.796;9.480;2024-03-23T02:11:05;8.63;;;6.55;;
1346;SDS011;667;48.796;9.480;2024-03-23T02:13:31;8.03;;;5.87;;
1346;SDS011;667;48.796;9.480;2024-03-23T02:15:57;6.28;;;5.68;;
1346;SDS011;667;48.796;9.480;2024-03-23T02:18:23;7.87;;;6.30;;
1346;SDS011;667;48.796;9.480;2024-03-23T02:20:49;6.07;;;5.33;;
1346;SDS011;667;48.796;9.480;2024-03-23T02:23:15;6.77;;;6.07;;
1346;SDS011;667;48.796;9.480;2024-03-23T02:25:42;6.18;;;5.75;;
1346;SDS011;667;48.796;9.480;2024-03-23T02:28:08;7.13;;;6.30;;
1346;SDS011;667;48.796;9.480;2024-03-23T02:30:34;6.38;;;5.50;;
1346;SDS011;667;48.796;9.480;2024-03-23T02:33:00;7.10;;;6.13;;
1346;SDS011;667;48.796;9.480;2024-03-23T02:35:26;6.50;;;5.90;;
1346;SDS011;667;48.796;9.480;2024-03-23T02:37:52;7.40;;;5.65;;
1346;SDS011;667;48.796;9.480;2024-03-23T02:40:19;8.43;;;5.53;;
1346;SDS011;667;48.796;9.480;2024-03-23T02:42:45;6.35;;;5.38;;
1346;SDS011;667;48.796;9.480;2024-03-23T02:45:11;5.43;;;4.93;;
1346;SDS011;667;48.796;9.480;2024-03-23T02:47:37;40.20;;;23.90;;
1346;SDS011;667;48.796;9.480;2024-03-23T02:50:03;9.07;;;6.07;;
1346;SDS011;667;48.796;9.480;2024-03-23T02:52:30;6.43;;;5.82;;
1346;SDS011;667;48.796;9.480;2024-03-23T02:54:56;6.03;;;5.30;;
1346;SDS011;667;48.796;9.480;2024-03-23T02:57:22;6.07;;;5.55;;
1346;SDS011;667;48.796;9.480;2024-03-23T02:59:48;6.47;;;5.87;;
1346;SDS011;667;48.796;9.480;2024-03-23T03:02:14;6.87;;;5.70;;
1346;SDS011;667;48.796;9.480;2024-03-23T03:04:41;7.30;;;5.15;;
1346;SDS011;667;48.796;9.480;2024-03-23T03:07:07;5.57;;;5.05;;
1346;SDS011;667;48.796;9.480;2024-03-23T03:09:33;6.27;;;5.10;;
1346;SDS011;667;48.796;9.480;2024-03-23T03:12:00;6.25;;;5.65;;
1346;SDS011;667;48.796;9.480;2024-03-23T03:14:26;6.50;;;5.90;;
1346;SDS011;667;48.796;9.480;2024-03-23T03:16:53;7.50;;;6.80;;
1346;SDS011;667;48.796;9.480;2024-03-23T03:19:19;6.70;;;6.10;;
1346;SDS011;667;48.796;9.480;2024-03-23T03:21:45;6.60;;;6.00;;
1346;SDS011;667;48.796;9.480;2024-03-23T03:24:12;6.55;;;6.00;;
1346;SDS011;667;48.796;9.480;2024-03-23T03:26:38;9.83;;;5.40;;
1346;SDS011;667;48.796;9.480;2024-03-23T03:29:04;5.97;;;5.30;;
1346;SDS011;667;48.796;9.480;2024-03-23T03:31:30;7.55;;;5.47;;
1346;SDS011;667;48.796;9.480;2024-03-23T03:33:56;6.47;;;5.15;;
1346;SDS011;667;48.796;9.480;2024-03-23T03:36:22;6.45;;;5.13;;
1346;SDS011;667;48.796;9.480;2024-03-23T03:38:48;6.70;;;4.93;;
1346;SDS011;667;48.796;9.480;2024-03-23T03:41:14;4.90;;;4.40;;
1346;SDS011;667;48.796;9.480;2024-03-23T03:43:40;4.97;;;4.53;;
1346;SDS011;667;48.796;9.480;2024-03-23T03:46:06;3.97;;;3.67;;
1346;SDS011;667;48.796;9.480;2024-03-23T03:48:36;4.40;;;4.03;;
1346;SDS011;667;48.796;9.480;2024-03-23T03:51:02;7.28;;;4.40;;
1346;SDS011;667;48.796;9.480;2024-03-23T03:53:28;3.83;;;3.45;;
1346;SDS011;667;48.796;9.480;2024-03-23T03:55:54;3.80;;;3.50;;
1346;SDS011;667;48.796;9.480;2024-03-23T03:58:20;4.77;;;4.30;;
1346;SDS011;667;48.796;9.480;2024-03-23T04:00:46;5.07;;;3.63;;
1346;SDS011;667;48.796;9.480;2024-03-23T04:03:12;3.00;;;2.73;;
1346;SDS011;667;48.796;9.480;2024-03-23T04:05:38;3.83;;;3.53;;
1346;SDS011;667;48.796;9.480;2024-03-23T04:08:05;3.50;;;3.20;;
1346;SDS011;667;48.796;9.480;2024-03-23T04:10:31;3.92;;;3.63;;
1346;SDS011;667;48.796;9.480;2024-03-23T04:12:57;3.00;;;2.80;;
1346;SDS011;667;48.796;9.480;2024-03-23T04:15:23;3.27;;;3.00;;
1346;SDS011;667;48.796;9.480;2024-03-23T04:17:49;3.30;;;3.00;;
1346;SDS011;667;48.796;9.480;2024-03-23T04:20:15;3.27;;;3.00;;
1346;SDS011;667;48.796;9.480;2024-03-23T04:22:42;3.45;;;3.13;;
1346;SDS011;667;48.796;9.480;2024-03-23T04:25:08;3.15;;;2.92;;
1346;SDS011;667;48.796;9.480;2024-03-23T04:27:35;3.05;;;2.63;;
1346;SDS011;667;48.796;9.480;2024-03-23T04:30:02;3.60;;;2.70;;
1346;SDS011;667;48.796;9.480;2024-03-23T04:32:29;3.65;;;2.53;;
1346;SDS011;667;48.796;9.480;2024-03-23T04:34:55;2.70;;;2.50;;
1346;SDS011;667;48.796;9.480;2024-03-23T04:37:21;3.23;;;2.93;;
1346;SDS011;667;48.796;9.480;2024-03-23T04:39:47;3.40;;;3.00;;
1346;SDS011;667;48.796;9.480;2024-03-23T04:42:14;6.90;;;2.70;;
1346;SDS011;667;48.796;9.480;2024-03-23T04:44:41;4.50;;;2.55;;
1346;SDS011;667;48.796;9.480;2024-03-23T04:47:07;3.83;;;2.90;;
1346;SDS011;667;48.796;9.480;2024-03-23T04:49:33;2.83;;;2.53;;
1346;SDS011;667;48.796;9.480;2024-03-23T04:52:01;2.88;;;2.67;;
1346;SDS011;667;48.796;9.480;2024-03-23T04:54:27;2.60;;;2.40;;
1346;SDS011;667;48.796;9.480;2024-03-23T04:56:53;4.83;;;3.47;;
1346;SDS011;667;48.796;9.480;2024-03-23T04:59:19;4.23;;;3.20;;
1346;SDS011;667;48.796;9.480;2024-03-23T05:01:45;5.85;;;3.88;;
1346;SDS011;667;48.796;9.480;2024-03-23T05:04:12;6.13;;;3.90;;
1346;SDS011;667;48.796;9.480;2024-03-23T05:06:38;4.10;;;3.70;;
1346;SDS011;667;48.796;9.480;2024-03-23T05:09:04;5.80;;;4.40;;
1346;SDS011;667;48.796;9.480;2024-03-23T05:11:32;8.18;;;5.00;;
1346;SDS011;667;48.796;9.480;2024-03-23T05:13:58;7.22;;;6.53;;
1346;SDS011;667;48.796;9.480;2024-03-23T05:16:24;9.45;;;7.43;;
1346;SDS011;667;48.796;9.480;2024-03-23T05:18:51;8.02;;;7.22;;
1346;SDS011;667;48.796;9.480;2024-03-23T05:21:17;9.97;;;7.83;;
1346;SDS011;667;48.796;9.480;2024-03-23T05:23:43;10.43;;;8.30;;
1346;SDS011;667;48.796;9.480;2024-03-23T05:26:09;9.60;;;8.13;;
1346;SDS011;667;48.796;9.480;2024-03-23T05:28:35;9.27;;;8.35;;
1346;SDS011;667;48.796;9.480;2024-03-23T05:31:01;11.85;;;9.27;;
1346;SDS011;667;48.796;9.480;2024-03-23T05:33:27;11.07;;;9.83;;
1346;SDS011;667;48.796;9.480;2024-03-23T05:35:56;13.32;;;10.25;;
1346;SDS011;667;48.796;9.480;2024-03-23T05:38:23;12.35;;;9.85;;
1346;SDS011;667;48.796;9.480;2024-03-23T05:40:55;12.30;;;11.00;;
1346;SDS011;667;48.796;9.480;2024-03-23T05:43:21;13.65;;;11.00;;
1346;SDS011;667;48.796;9.480;2024-03-23T05:46:08;14.63;;;12.23;;
1346;SDS011;667;48.796;9.480;2024-03-23T05:48:34;15.70;;;10.77;;
1346;SDS011;667;48.796;9.480;2024-03-23T05:50:59;13.77;;;11.93;;
1346;SDS011;667;48.796;9.480;2024-03-23T05:53:25;17.80;;;12.30;;
1346;SDS011;667;48.796;9.480;2024-03-23T05:55:59;16.10;;;11.88;;
1346;SDS011;667;48.796;9.480;2024-03-23T05:58:25;14.88;;;11.68;;
1346;SDS011;667;48.796;9.480;2024-03-23T06:00:56;14.57;;;12.57;;
1346;SDS011;667;48.796;9.480;2024-03-23T06:03:23;16.63;;;12.63;;
1346;SDS011;667;48.796;9.480;2024-03-23T06:05:49;15.20;;;12.00;;
1346;SDS011;667;48.796;9.480;2024-03-23T06:08:15;14.33;;;12.03;;
1346;SDS011;667;48.796;9.480;2024-03-23T06:10:41;16.10;;;12.50;;
1346;SDS011;667;48.796;9.480;2024-03-23T06:13:07;17.03;;;11.97;;
1346;SDS011;667;48.796;9.480;2024-03-23T06:15:33;14.45;;;11.60;;
1346;SDS011;667;48.796;9.480;2024-03-23T06:18:02;11.95;;;9.15;;
1346;SDS011;667;48.796;9.480;2024-03-23T06:20:29;11.75;;;8.98;;
1346;SDS011;667;48.796;9.480;2024-03-23T06:22:55;8.23;;;6.87;;
1346;SDS011;667;48.796;9.480;2024-03-23T06:25:21;7.97;;;6.53;;
1346;SDS011;667;48.796;9.480;2024-03-23T06:27:47;8.97;;;6.40;;
1346;SDS011;667;48.796;9.480;2024-03-23T06:30:13;5.77;;;4.63;;
1346;SDS011;667;48.796;9.480;2024-03-23T06:32:39;5.20;;;3.63;;
1346;SDS011;667;48.796;9.480;2024-03-23T06:35:05;3.90;;;3.53;;
1346;SDS011;667;48.796;9.480;2024-03-23T06:37:33;3.97;;;2.95;;
1346;SDS011;667;48.796;9.480;2024-03-23T06:39:59;3.80;;;3.25;;
1346;SDS011;667;48.796;9.480;2024-03-23T06:42:25;2.55;;;2.25;;
1346;SDS011;667;48.796;9.480;2024-03-23T06:44:51;2.60;;;2.20;;
1346;SDS011;667;48.796;9.480;2024-03-23T06:47:17;4.10;;;2.50;;
1346;SDS011;667;48.796;9.480;2024-03-23T06:49:43;3.87;;;2.37;;
1346;SDS011;667;48.796;9.480;2024-03-23T06:52:09;2.60;;;2.20;;
1346;SDS011;667;48.796;9.480;2024-03-23T06:54:35;2.43;;;2.23;;
1346;SDS011;667;48.796;9.480;2024-03-23T06:57:01;1.90;;;1.70;;
1346;SDS011;667;48.796;9.480;2024-03-23T06:59:28;2.75;;;2.10;;
1346;SDS011;667;48.796;9.480;2024-03-23T07:01:53;2.37;;;1.70;;
1346;SDS011;667;48.796;9.480;2024-03-23T07:04:19;2.10;;;1.90;;
1346;SDS011;667;48.796;9.480;2024-03-23T07:06:45;1.77;;;1.60;;
1346;SDS011;667;48.796;9.480;2024-03-23T07:09:11;1.60;;;1.42;;
1346;SDS011;667;48.796;9.480;2024-03-23T07:11:37;1.77;;;1.63;;
1346;SDS011;667;48.796;9.480;2024-03-23T07:14:03;2.00;;;1.30;;
1346;SDS011;667;48.796;9.480;2024-03-23T07:16:30;1.83;;;1.25;;
1346;SDS011;667;48.796;9.480;2024-03-23T07:18:56;1.45;;;1.15;;
1346;SDS011;667;48.796;9.480;2024-03-23T07:21:22;1.80;;;1.10;;
1346;SDS011;667;48.796;9.480;2024-03-23T07:23:48;1.97;;;1.10;;
1346;SDS011;667;48.796;9.480;2024-03-23T07:26:14;1.23;;;1.02;;
1346;SDS011;667;48.796;9.480;2024-03-23T07:28:40;1.30;;;1.17;;
1346;SDS011;667;48.796;9.480;2024-03-23T07:31:10;1.02;;;0.95;;
1346;SDS011;667;48.796;9.480;2024-03-23T07:33:43;0.98;;;0.93;;
1346;SDS011;667;48.796;9.480;2024-03-23T07:36:09;1.08;;;0.90;;
1346;SDS011;667;48.796;9.480;2024-03-23T07:38:35;1.30;;;0.87;;
1346;SDS011;667;48.796;9.480;2024-03-23T07:43:30;0.80;;;0.80;;
1346;SDS011;667;48.796;9.480;2024-03-23T07:45:56;0.70;;;0.70;;
1346;SDS011;667;48.796;9.480;2024-03-23T07:48:22;1.00;;;0.90;;
1346;SDS011;667;48.796;9.480;2024-03-23T07:51:01;1.08;;;0.90;;
1346;SDS011;667;48.796;9.480;2024-03-23T07:53:27;0.80;;;0.80;;
1346;SDS011;667;48.796;9.480;2024-03-23T07:55:54;0.60;;;0.60;;
1346;SDS011;667;48.796;9.480;2024-03-23T07:58:20;0.70;;;0.70;;
1346;SDS011;667;48.796;9.480;2024-03-23T08:00:46;1.00;;;0.90;;
1346;SDS011;667;48.796;9.480;2024-03-23T08:03:12;1.13;;;0.90;;
1346;SDS011;667;48.796;9.480;2024-03-23T08:05:38;1.00;;;0.90;;
1346;SDS011;667;48.796;9.480;2024-03-23T08:08:04;1.80;;;1.03;;
1346;SDS011;667;48.796;9.480;2024-03-23T08:10:30;0.95;;;0.80;;
1346;SDS011;667;48.796;9.480;2024-03-23T08:12:56;1.00;;;0.90;;
1346;SDS011;667;48.796;9.480;2024-03-23T08:15:22;0.53;;;0.53;;
1346;SDS011;667;48.796;9.480;2024-03-23T08:17:49;1.33;;;1.23;;
1346;SDS011;667;48.796;9.480;2024-03-23T08:20:15;0.65;;;0.65;;
1346;SDS011;667;48.796;9.480;2024-03-23T08:22:40;0.97;;;0.90;;
1346;SDS011;667;48.796;9.480;2024-03-23T08:25:07;0.73;;;0.73;;
1346;SDS011;667;48.796;9.480;2024-03-23T08:27:33;3.97;;;2.00;;
1346;SDS011;667;48.796;9.480;2024-03-23T08:29:59;1.80;;;1.30;;
1346;SDS011;667;48.796;9.480;2024-03-23T08:32:25;6.83;;;6.20;;
1346;SDS011;667;48.796;9.480;2024-03-23T08:34:50;2.10;;;1.90;;
1346;SDS011;667;48.796;9.480;2024-03-23T08:37:16;1.70;;;1.53;;
1346;SDS011;667;48.796;9.480;2024-03-23T08:39:43;1.30;;;0.70;;
1346;SDS011;667;48.796;9.480;2024-03-23T08:42:09;1.30;;;1.20;;
1346;SDS011;667;48.796;9.480;2024-03-23T08:44:35;1.92;;;1.50;;
1346;SDS011;667;48.796;9.480;2024-03-23T08:47:01;0.70;;;0.70;;
1346;SDS011;667;48.796;9.480;2024-03-23T08:49:27;0.90;;;0.88;;
1346;SDS011;667;48.796;9.480;2024-03-23T08:51:53;0.60;;;0.60;;
1346;SDS011;667;48.796;9.480;2024-03-23T08:54:19;1.25;;;0.60;;
1346;SDS011;667;48.796;9.480;2024-03-23T08:56:47;0.70;;;0.50;;
1346;SDS011;667;48.796;9.480;2024-03-23T08:59:13;0.63;;;0.60;;
1346;SDS011;667;48.796;9.480;2024-03-23T09:01:39;0.60;;;0.60;;
1346;SDS011;667;48.796;9.480;2024-03-23T09:04:05;0.70;;;0.70;;
1346;SDS011;667;48.796;9.480;2024-03-23T09:06:31;0.60;;;0.60;;
1346;SDS011;667;48.796;9.480;2024-03-23T09:08:57;1.40;;;1.00;;
1346;SDS011;667;48.796;9.480;2024-03-23T09:11:23;3.10;;;1.20;;
1346;SDS011;667;48.796;9.480;2024-03-23T09:13:49;2.20;;;1.20;;
1346;SDS011;667;48.796;9.480;2024-03-23T09:16:14;1.80;;;1.10;;
1346;SDS011;667;48.796;9.480;2024-03-23T09:18:40;3.80;;;1.20;;
1346;SDS011;667;48.796;9.480;2024-03-23T09:21:11;3.45;;;1.60;;
1346;SDS011;667;48.796;9.480;2024-03-23T09:23:38;2.45;;;1.23;;
1346;SDS011;667;48.796;9.480;2024-03-23T09:26:04;2.90;;;1.30;;
1346;SDS011;667;48.796;9.480;2024-03-23T09:28:32;4.10;;;1.55;;
1346;SDS011;667;48.796;9.480;2024-03-23T09:31:04;2.67;;;1.57;;
1346;SDS011;667;48.796;9.480;2024-03-23T09:33:30;2.90;;;1.50;;
1346;SDS011;667;48.796;9.480;2024-03-23T09:35:56;6.13;;;1.70;;
1346;SDS011;667;48.796;9.480;2024-03-23T09:38:22;3.67;;;1.77;;
1346;SDS011;667;48.796;9.480;2024-03-23T09:40:50;1.65;;;1.40;;
1346;SDS011;667;48.796;9.480;2024-03-23T09:43:18;3.30;;;2.30;;
1346;SDS011;667;48.796;9.480;2024-03-23T09:45:44;2.80;;;2.10;;
1346;SDS011;667;48.796;9.480;2024-03-23T09:48:10;3.50;;;2.35;;
1346;SDS011;667;48.796;9.480;2024-03-23T09:50:37;2.50;;;1.92;;
1346;SDS011;667;48.796;9.480;2024-03-23T09:53:04;4.05;;;2.03;;
1346;SDS011;667;48.796;9.480;2024-03-23T09:55:30;3.95;;;2.53;;
1346;SDS011;667;48.796;9.480;2024-03-23T09:57:56;3.00;;;1.93;;
1346;SDS011;667;48.796;9.480;2024-03-23T10:00:22;3.25;;;2.20;;
1346;SDS011;667;48.796;9.480;2024-03-23T10:02:48;4.27;;;2.43;;
1346;SDS011;667;48.796;9.480;2024-03-23T10:05:21;2.97;;;2.43;;
1346;SDS011;667;48.796;9.480;2024-03-23T10:07:48;4.00;;;2.72;;
1346;SDS011;667;48.796;9.480;2024-03-23T10:10:15;5.35;;;2.80;;
1346;SDS011;667;48.796;9.480;2024-03-23T10:12:45;3.58;;;2.28;;
1346;SDS011;667;48.796;9.480;2024-03-23T10:17:44;4.32;;;2.30;;
1346;SDS011;667;48.796;9.480;2024-03-23T10:20:10;5.05;;;2.15;;
1346;SDS011;667;48.796;9.480;2024-03-23T10:22:37;4.18;;;2.65;;
1346;SDS011;667;48.796;9.480;2024-03-23T10:25:09;4.57;;;2.25;;
1346;SDS011;667;48.796;9.480;2024-03-23T10:27:35;5.53;;;2.70;;
1346;SDS011;667;48.796;9.480;2024-03-23T10:30:07;9.30;;;4.45;;
1346;SDS011;667;48.796;9.480;2024-03-23T10:32:34;6.07;;;2.80;;
1346;SDS011;667;48.796;9.480;2024-03-23T10:37:47;3.42;;;2.10;;
1346;SDS011;667;48.796;9.480;2024-03-23T10:40:14;5.40;;;2.97;;
1346;SDS011;667;48.796;9.480;2024-03-23T10:42:40;4.25;;;2.33;;
1346;SDS011;667;48.796;9.480;2024-03-23T10:45:07;6.45;;;3.70;;
1346;SDS011;667;48.796;9.480;2024-03-23T10:47:34;3.88;;;3.00;;
1346;SDS011;667;48.796;9.480;2024-03-23T10:50:01;9.00;;;3.35;;
1346;SDS011;667;48.796;9.480;2024-03-23T10:52:27;3.90;;;2.40;;
1346;SDS011;667;48.796;9.480;2024-03-23T10:54:53;9.02;;;2.78;;
1346;SDS011;667;48.796;9.480;2024-03-23T10:57:20;3.63;;;2.90;;
1346;SDS011;667;48.796;9.480;2024-03-23T10:59:47;4.25;;;2.88;;
1346;SDS011;667;48.796;9.480;2024-03-23T11:02:19;5.78;;;2.78;;
1346;SDS011;667;48.796;9.480;2024-03-23T11:04:46;6.13;;;2.85;;
1346;SDS011;667;48.796;9.480;2024-03-23T11:09:50;3.70;;;3.10;;
1346;SDS011;667;48.796;9.480;2024-03-23T11:14:50;4.05;;;2.70;;
1346;SDS011;667;48.796;9.480;2024-03-23T11:17:20;7.15;;;3.45;;
1346;SDS011;667;48.796;9.480;2024-03-23T11:25:15;5.85;;;3.78;;
1346;SDS011;667;48.796;9.480;2024-03-23T11:27:42;9.02;;;4.30;;
1346;SDS011;667;48.796;9.480;2024-03-23T11:30:15;9.75;;;4.40;;
1346;SDS011;667;48.796;9.480;2024-03-23T11:32:42;6.95;;;4.43;;
1346;SDS011;667;48.796;9.480;2024-03-23T11:35:08;7.88;;;4.78;;
1346;SDS011;667;48.796;9.480;2024-03-23T11:37:35;6.20;;;4.15;;
1346;SDS011;667;48.796;9.480;2024-03-23T11:40:06;6.13;;;4.63;;
1346;SDS011;667;48.796;9.480;2024-03-23T11:42:41;4.60;;;3.85;;
1346;SDS011;667;48.796;9.480;2024-03-23T11:45:08;7.77;;;4.30;;
1346;SDS011;667;48.796;9.480;2024-03-23T11:47:34;3.83;;;3.13;;
1346;SDS011;667;48.796;9.480;2024-03-23T11:50:00;4.30;;;2.67;;
1346;SDS011;667;48.796;9.480;2024-03-23T11:52:26;3.80;;;3.03;;
1346;SDS011;667;48.796;9.480;2024-03-23T11:55:02;6.28;;;2.40;;
1346;SDS011;667;48.796;9.480;2024-03-23T11:57:28;2.58;;;2.38;;
1346;SDS011;667;48.796;9.480;2024-03-23T11:59:55;3.38;;;3.00;;
1346;SDS011;667;48.796;9.480;2024-03-23T12:02:21;2.53;;;2.33;;
1346;SDS011;667;48.796;9.480;2024-03-23T12:04:47;3.33;;;2.50;;
1346;SDS011;667;48.796;9.480;2024-03-23T12:07:13;6.20;;;2.53;;
1346;SDS011;667;48.796;9.480;2024-03-23T12:09:40;3.75;;;2.78;;
1346;SDS011;667;48.796;9.480;2024-03-23T12:12:10;4.35;;;2.33;;
1346;SDS011;667;48.796;9.480;2024-03-23T12:14:36;2.40;;;2.10;;
1346;SDS011;667;48.796;9.480;2024-03-23T12:17:09;3.10;;;2.80;;
1346;SDS011;667;48.796;9.480;2024-03-23T12:19:35;6.05;;;3.60;;
1346;SDS011;667;48.796;9.480;2024-03-23T12:22:02;3.43;;;3.07;;
1346;SDS011;667;48.796;9.480;2024-03-23T12:24:28;3.78;;;2.83;;
1346;SDS011;667;48.796;9.480;2024-03-23T12:26:54;3.25;;;2.40;;
1346;SDS011;667;48.796;9.480;2024-03-23T12:29:21;5.60;;;3.25;;
1346;SDS011;667;48.796;9.480;2024-03-23T12:31:46;3.17;;;2.60;;
1346;SDS011;667;48.796;9.480;2024-03-23T12:34:12;4.20;;;3.00;;
1346;SDS011;667;48.796;9.480;2024-03-23T12:36:38;3.83;;;2.60;;
1346;SDS011;667;48.796;9.480;2024-03-23T12:39:04;2.33;;;2.13;;
1346;SDS011;667;48.796;9.480;2024-03-23T12:41:30;2.40;;;2.20;;
1346;SDS011;667;48.796;9.480;2024-03-23T12:43:56;3.10;;;2.10;;
1346;SDS011;667;48.796;9.480;2024-03-23T12:46:22;3.33;;;2.17;;
1346;SDS011;667;48.796;9.480;2024-03-23T12:48:48;5.00;;;2.20;;
1346;SDS011;667;48.796;9.480;2024-03-23T12:51:14;3.40;;;2.00;;
1346;SDS011;667;48.796;9.480;2024-03-23T12:53:40;2.37;;;1.83;;
1346;SDS011;667;48.796;9.480;2024-03-23T12:56:06;4.33;;;1.80;;
1346;SDS011;667;48.796;9.480;2024-03-23T12:58:32;4.40;;;2.20;;
1346;SDS011;667;48.796;9.480;2024-03-23T13:00:58;4.83;;;2.10;;
1346;SDS011;667;48.796;9.480;2024-03-23T13:03:24;3.13;;;2.15;;
1346;SDS011;667;48.796;9.480;2024-03-23T13:05:53;2.30;;;1.60;;
1346;SDS011;667;48.796;9.480;2024-03-23T13:08:19;3.42;;;1.92;;
1346;SDS011;667;48.796;9.480;2024-03-23T13:10:45;3.47;;;2.00;;
1346;SDS011;667;48.796;9.480;2024-03-23T13:13:12;2.33;;;2.00;;
1346;SDS011;667;48.796;9.480;2024-03-23T13:15:38;2.07;;;1.53;;
1346;SDS011;667;48.796;9.480;2024-03-23T13:18:04;1.83;;;1.40;;
1346;SDS011;667;48.796;9.480;2024-03-23T13:20:30;7.00;;;2.40;;
1346;SDS011;667;48.796;9.480;2024-03-23T13:22:56;4.90;;;3.20;;
1346;SDS011;667;48.796;9.480;2024-03-23T13:25:22;5.50;;;3.80;;
1346;SDS011;667;48.796;9.480;2024-03-23T13:27:47;9.13;;;5.83;;
1346;SDS011;667;48.796;9.480;2024-03-23T13:30:13;4.53;;;2.70;;
1346;SDS011;667;48.796;9.480;2024-03-23T13:32:39;4.73;;;2.50;;
1346;SDS011;667;48.796;9.480;2024-03-23T13:35:05;6.27;;;2.53;;
1346;SDS011;667;48.796;9.480;2024-03-23T13:37:31;5.45;;;2.20;;
1346;SDS011;667;48.796;9.480;2024-03-23T13:39:58;4.15;;;2.22;;
1346;SDS011;667;48.796;9.480;2024-03-23T13:42:25;5.15;;;2.10;;
1346;SDS011;667;48.796;9.480;2024-03-23T13:44:51;6.43;;;2.80;;
1346;SDS011;667;48.796;9.480;2024-03-23T13:47:17;6.33;;;2.63;;
1346;SDS011;667;48.796;9.480;2024-03-23T13:49:43;3.85;;;2.13;;
1346;SDS011;667;48.796;9.480;2024-03-23T13:52:09;3.53;;;1.60;;
1346;SDS011;667;48.796;9.480;2024-03-23T13:54:36;6.88;;;2.25;;
1346;SDS011;667;48.796;9.480;2024-03-23T13:57:02;4.20;;;2.00;;
1346;SDS011;667;48.796;9.480;2024-03-23T13:59:28;3.50;;;2.37;;
1346;SDS011;667;48.796;9.480;2024-03-23T14:01:55;4.53;;;2.33;;
1346;SDS011;667;48.796;9.480;2024-03-23T14:04:21;4.30;;;2.17;;
1346;SDS011;667;48.796;9.480;2024-03-23T14:06:48;4.28;;;1.98;;
1346;SDS011;667;48.796;9.480;2024-03-23T14:09:14;2.40;;;1.80;;
1346;SDS011;667;48.796;9.480;2024-03-23T14:11:46;6.88;;;1.70;;
1346;SDS011;667;48.796;9.480;2024-03-23T14:14:12;6.70;;;1.60;;
1346;SDS011;667;48.796;9.480;2024-03-23T14:16:38;3.33;;;1.60;;
1346;SDS011;667;48.796;9.480;2024-03-23T14:19:04;4.80;;;1.80;;
1346;SDS011;667;48.796;9.480;2024-03-23T14:21:30;2.38;;;1.17;;
1346;SDS011;667;48.796;9.480;2024-03-23T14:23:56;2.23;;;1.60;;
1346;SDS011;667;48.796;9.480;2024-03-23T14:26:22;2.00;;;1.00;;
1346;SDS011;667;48.796;9.480;2024-03-23T14:28:49;1.00;;;0.90;;
1346;SDS011;667;48.796;9.480;2024-03-23T14:31:15;3.95;;;1.30;;
1346;SDS011;667;48.796;9.480;2024-03-23T14:33:41;3.30;;;1.52;;
1346;SDS011;667;48.796;9.480;2024-03-23T14:36:11;7.18;;;3.90;;
1346;SDS011;667;48.796;9.480;2024-03-23T14:38:37;2.83;;;1.50;;
1346;SDS011;667;48.796;9.480;2024-03-23T14:41:04;2.92;;;1.45;;
1346;SDS011;667;48.796;9.480;2024-03-23T14:43:30;4.00;;;1.70;;
1346;SDS011;667;48.796;9.480;2024-03-23T14:46:06;2.93;;;1.80;;
1346;SDS011;667;48.796;9.480;2024-03-23T14:48:32;3.13;;;1.73;;
1346;SDS011;667;48.796;9.480;2024-03-23T14:50:58;1.30;;;0.82;;
1346;SDS011;667;48.796;9.480;2024-03-23T14:53:25;1.77;;;0.98;;
1346;SDS011;667;48.796;9.480;2024-03-23T14:55:54;2.05;;;1.02;;
1346;SDS011;667;48.796;9.480;2024-03-23T14:58:20;1.88;;;1.38;;
1346;SDS011;667;48.796;9.480;2024-03-23T15:00:47;2.70;;;1.10;;
1346;SDS011;667;48.796;9.480;2024-03-23T15:03:13;3.67;;;1.17;;
1346;SDS011;667;48.796;9.480;2024-03-23T15:05:39;1.65;;;0.90;;
1346;SDS011;667;48.796;9.480;2024-03-23T15:08:05;1.27;;;0.87;;
1346;SDS011;667;48.796;9.480;2024-03-23T15:10:35;2.65;;;1.17;;
1346;SDS011;667;48.796;9.480;2024-03-23T15:13:01;2.50;;;1.45;;
1346;SDS011;667;48.796;9.480;2024-03-23T15:15:27;1.30;;;0.90;;
1346;SDS011;667;48.796;9.480;2024-03-23T15:17:53;2.27;;;1.30;;
1346;SDS011;667;48.796;9.480;2024-03-23T15:20:18;2.67;;;1.30;;
1346;SDS011;667;48.796;9.480;2024-03-23T15:22:44;3.23;;;1.20;;
1346;SDS011;667;48.796;9.480;2024-03-23T15:25:10;3.00;;;1.60;;
1346;SDS011;667;48.796;9.480;2024-03-23T15:27:37;2.65;;;1.25;;
1346;SDS011;667;48.796;9.480;2024-03-23T15:30:03;3.70;;;1.40;;
1346;SDS011;667;48.796;9.480;2024-03-23T15:32:30;2.70;;;1.52;;
1346;SDS011;667;48.796;9.480;2024-03-23T15:34:56;2.80;;;1.90;;
1346;SDS011;667;48.796;9.480;2024-03-23T15:37:21;2.60;;;1.10;;
1346;SDS011;667;48.796;9.480;2024-03-23T15:39:47;1.60;;;1.20;;
1346;SDS011;667;48.796;9.480;2024-03-23T15:42:13;1.90;;;1.50;;
1346;SDS011;667;48.796;9.480;2024-03-23T15:44:39;2.37;;;1.30;;
1346;SDS011;667;48.796;9.480;2024-03-23T15:47:05;2.47;;;1.13;;
1346;SDS011;667;48.796;9.480;2024-03-23T15:49:31;2.60;;;0.80;;
1346;SDS011;667;48.796;9.480;2024-03-23T15:51:57;1.43;;;0.80;;
1346;SDS011;667;48.796;9.480;2024-03-23T15:54:24;1.75;;;1.20;;
1346;SDS011;667;48.796;9.480;2024-03-23T15:56:50;1.50;;;1.20;;
1346;SDS011;667;48.796;9.480;2024-03-23T15:59:16;1.30;;;1.20;;
1346;SDS011;667;48.796;9.480;2024-03-23T16:01:42;1.83;;;1.30;;
1346;SDS011;667;48.796;9.480;2024-03-23T16:04:09;4.95;;;1.50;;
1346;SDS011;667;48.796;9.480;2024-03-23T16:06:35;1.23;;;1.07;;
1346;SDS011;667;48.796;9.480;2024-03-23T16:09:01;1.30;;;1.07;;
1346;SDS011;667;48.796;9.480;2024-03-23T16:11:27;1.73;;;0.90;;
1346;SDS011;667;48.796;9.480;2024-03-23T16:13:53;1.67;;;0.80;;
1346;SDS011;667;48.796;9.480;2024-03-23T16:16:18;1.17;;;0.70;;
1346;SDS011;667;48.796;9.480;2024-03-23T16:18:47;1.88;;;0.98;;
1346;SDS011;667;48.796;9.480;2024-03-23T16:21:13;1.70;;;0.90;;
1346;SDS011;667;48.796;9.480;2024-03-23T16:23:39;3.70;;;1.20;;
1346;SDS011;667;48.796;9.480;2024-03-23T16:26:09;2.65;;;1.30;;
1346;SDS011;667;48.796;9.480;2024-03-23T16:28:37;1.95;;;1.02;;
1346;SDS011;667;48.796;9.480;2024-03-23T16:31:09;3.60;;;1.30;;
1346;SDS011;667;48.796;9.480;2024-03-23T16:33:36;2.17;;;1.60;;
1346;SDS011;667;48.796;9.480;2024-03-23T16:36:06;2.95;;;1.23;;